Flight Track Log - Related Links

Times and Time Zones

All times are in EDT time to prevent confusion due to time zone crossing. See the N523JM flight status page for this flight to view local times or setup timezone preferences in your user account.

Time Position Orientation Groundspeed Altitude Reporting Facility
EDT Latitude Longitude Course Direction KTS MPH feet Rate Location/Type
Mon 09:29:53 AM 40.0769 -83.0942 263° West 169 194 1,400  Level Indianapolis Center
Mon 09:30:48 AM 40.0706 -83.1614 263° West 221 254 3,000 1,157 Climbing Indianapolis Center
Mon 09:31:16 AM 40.0731 -83.1919 276° West 226 260 3,000  Level Indianapolis Center
Mon 09:31:49 AM 40.1056 -83.2331 316° Northwest 267 307 3,000  Level Indianapolis Center
Mon 09:32:18 AM 40.1286 -83.2381 351° North 247 284 3,000 787 Level Indianapolis Center
Mon 09:32:50 AM 40.1750 -83.2333 North 263 303 3,800 1,742 Climbing Indianapolis Center
Mon 09:33:20 AM 40.1961 -83.2153 33° Northeast 257 296 4,800 2,836 Climbing Indianapolis Center
Mon 09:33:45 AM 40.2283 -83.1819 38° Northeast 285 328 6,400 3,738 Climbing Indianapolis Center
Mon 09:34:21 AM 40.2647 -83.1436 39° Northeast 264 304 8,600 2,755 Climbing Indianapolis Center
Mon 09:35:23 AM 40.3294 -83.0872 34° Northeast 278 320 10,900 2,032 Climbing Indianapolis Center
Mon 09:36:25 AM 40.4083 -83.0189 33° Northeast 336 387 12,800 1,839 Climbing Indianapolis Center
Mon 09:37:27 AM 40.4919 -82.9436 34° Northeast 362 417 14,700 2,032 Climbing Indianapolis Center
Mon 09:38:29 AM 40.5922 -82.8528 35° Northeast 380 437 17,000 1,984 Climbing Indianapolis Center
Mon 09:39:31 AM 40.6825 -82.7736 34° Northeast 387 445 18,800 1,790 Climbing Indianapolis Center
Mon 09:40:33 AM 40.7733 -82.6936 34° Northeast 388 447 20,700 1,887 Climbing Indianapolis Center
Mon 09:41:35 AM 40.8622 -82.6131 34° Northeast 385 443 22,700 1,935 Climbing Indianapolis Center
Mon 09:42:37 AM 40.9103 -82.4847 64° Northeast 398 458 24,700 1,113 Climbing Indianapolis Center
Mon 09:43:39 AM 40.9431 -82.3392 73° East 408 470 25,000 532 Climbing Indianapolis Center
Mon 09:44:41 AM 40.9783 -82.1808 74° East 439 505 25,800 1,113 Climbing Indianapolis Center
Mon 09:45:43 AM 41.0142 -82.0239 73° East 444 511 27,300 1,548 Climbing Indianapolis Center
Mon 09:46:45 AM 41.0536 -81.8428 74° East 440 506 29,000 1,500 Climbing Indianapolis Center
Mon 09:47:47 AM 41.0872 -81.6897 74° East 436 502 30,400 1,306 Climbing Indianapolis Center
Mon 09:48:49 AM 41.1208 -81.5389 73° East 431 496 31,700 1,161 Climbing Indianapolis Center
Mon 09:49:51 AM 41.1542 -81.3864 74° East 432 497 32,800 1,016 Climbing Indianapolis Center
Mon 09:50:53 AM 41.1881 -81.2317 74° East 436 502 33,800 1,039 Climbing Indianapolis Center
Mon 09:51:58 AM 41.2269 -81.0525 74° East 434 499 35,000 1,087 Climbing Cleveland Center
Mon 09:53:00 AM 41.2594 -80.8994 74° East 430 495 36,100 968 Climbing Cleveland Center
Mon 09:54:02 AM 41.2919 -80.7481 74° East 426 490 37,000 435 Climbing Cleveland Center
Mon 09:55:04 AM 41.3236 -80.5961 74° East 424 488 37,000  Level Cleveland Center
Mon 09:56:06 AM 41.3578 -80.4353 74° East 445 512 37,000  Level Cleveland Center
Mon 09:57:08 AM 41.3986 -80.2406 74° East 462 532 37,000  Level Cleveland Center
Mon 09:58:10 AM 41.4350 -80.0697 74° East 475 547 37,000  Level Cleveland Center
Mon 09:59:12 AM 41.4669 -79.9125 75° East 483 556 37,000  Level Cleveland Center
Mon 10:00:14 AM 41.5097 -79.7022 75° East 492 566 37,000  Level Cleveland Center
Mon 10:01:16 AM 41.5458 -79.5247 75° East 495 570 37,000  Level Cleveland Center
Mon 10:02:18 AM 41.5800 -79.3467 76° East 497 572 37,000  Level Cleveland Center
Mon 10:03:20 AM 41.6150 -79.1719 75° East 490 564 37,000  Level Cleveland Center
Mon 10:04:22 AM 41.6508 -78.9878 75° East 495 570 37,000  Level Cleveland Center
Mon 10:05:24 AM 41.6836 -78.8156 76° East 494 568 37,000 -48 Level Cleveland Center
Mon 10:06:26 AM 41.7250 -78.6025 75° East 493 567 36,900 -290 Descending Cleveland Center
Mon 10:07:28 AM 41.7594 -78.4256 75° East 492 566 36,400 -435 Descending Cleveland Center
Mon 10:08:30 AM 41.7919 -78.2458 76° East 496 571 36,000 -432 Descending Cleveland Center
Mon 10:09:33 AM 41.8244 -78.0678 76° East 494 568 35,500 -480 Descending Cleveland Center
Mon 10:10:35 AM 41.8556 -77.8872 77° East 497 572 35,000 -242 Descending Cleveland Center
Mon 10:11:37 AM 41.8258 -77.7008 102° East 510 587 35,000  Level Cleveland Center
Mon 10:12:39 AM 41.7692 -77.4883 110° East 512 589 35,000  Level Cleveland Center
Mon 10:13:41 AM 41.7211 -77.3089 110° East 516 594 35,000 -435 Level Cleveland Center
Mon 10:14:43 AM 41.6725 -77.1281 110° East 519 597 34,100 -1,161 Descending Cleveland Center
Mon 10:15:45 AM 41.6222 -76.9456 110° East 524 603 32,600 -1,452 Descending Cleveland Center
Mon 10:16:47 AM 41.5717 -76.7583 110° East 526 605 31,100 -1,403 Descending Cleveland Center
Mon 10:17:49 AM 41.5222 -76.5786 110° East 519 597 29,700 -1,887 Descending Cleveland Center
Mon 10:18:51 AM 41.4661 -76.3764 110° East 508 585 27,200 -2,565 Descending Cleveland Center
Mon 10:19:53 AM 41.4181 -76.2069 111° Southeast 494 568 24,400 -2,758 Descending Cleveland Center
Mon 10:20:55 AM 41.3719 -76.0425 110° East 481 554 21,500 -2,693 Descending Cleveland Center
Mon 10:22:00 AM 41.3169 -75.8508 111° Southeast 463 533 18,700 -2,352 Descending New York Center
Mon 10:23:00 AM 41.2736 -75.6958 110° East 458 527 16,600 -1,900 Descending New York Center
Mon 10:24:00 AM 41.2311 -75.5603 113° Southeast 443 510 14,900 -1,600 Descending New York Center
Mon 10:25:00 AM 41.1753 -75.3964 114° Southeast 443 510 13,400 -1,950 Descending New York Center
Mon 10:26:00 AM 41.1283 -75.2583 114° Southeast 428 493 11,000 -2,300 Descending New York Center
Mon 10:27:00 AM 41.0892 -75.1372 113° Southeast 396 456 8,800 -2,050 Descending New York Center
Mon 10:28:00 AM 41.0572 -75.0444 115° Southeast 329 379 6,900 -1,400 Descending New York Center
Mon 10:29:00 AM 41.0231 -74.9514 116° Southeast 292 336 6,000 -600 Descending New York Center
Mon 10:30:00 AM 40.9850 -74.8447 115° Southeast 286 329 5,700 -850 Descending New York Center
Mon 10:31:00 AM 40.9500 -74.7711 122° Southeast 274 315 4,300 -950 Descending New York Center
Mon 10:32:00 AM 40.9114 -74.6836 120° Southeast 258 297 3,800 -650 Descending New York Center
Mon 10:33:00 AM 40.8803 -74.6133 120° Southeast 253 291 3,000 -400 Descending New York Center
Mon 10:34:00 AM 40.8392 -74.5314 124° Southeast 248 285 3,000  Level New York Center
Mon 10:35:00 AM 40.8042 -74.4583 122° Southeast 248 285 3,000 -50 Level New York Center
Mon 10:36:00 AM 40.7608 -74.3739 124° Southeast 248 285 2,900 -450 Descending New York Center
Mon 10:37:00 AM 40.7256 -74.3008 122° Southeast 242 278 2,100 -450 Descending New York Center
Mon 10:38:00 AM 40.7339 -74.2300 81° East 175 201 2,000 -150 Descending New York Center
Mon 10:39:00 AM 40.7664 -74.1878 45° Northeast 175 201 1,800 -250 Descending New York Center
Mon 10:40:00 AM 40.8033 -74.1375 46° Northeast 175 201 1,500 -500 Descending New York Center
Mon 10:41:00 AM 40.8089 -74.0803 83° East 156 180 800 -650 Descending New York Center
Mon 10:42:00 AM 40.8325 -74.0650 26° Northeast 117 135 200 -600 Descending New York Center
Mon 10:43:00 AM 40.8500 -74.0500 65° Northeast  Level FlightAware Approximate
Mon 10:50:00 AM 40.8501 -74.0608 65° Northeast  Level Estimated

Login

Don't have an account? Register now (free) for customized features, flight alerts, and more!